sensor_id;sensor_type;location;lat;lon;timestamp;P1;durP1;ratioP1;P2;durP2;ratioP2
817;SDS011;391;51.052;6.954;2023-03-11T00:01:57;3.92;;;1.65;;
817;SDS011;391;51.052;6.954;2023-03-11T00:04:00;4.15;;;2.10;;
817;SDS011;391;51.052;6.954;2023-03-11T00:06:05;3.08;;;1.55;;
817;SDS011;391;51.052;6.954;2023-03-11T00:08:10;5.03;;;1.75;;
817;SDS011;391;51.052;6.954;2023-03-11T00:10:16;3.50;;;1.48;;
817;SDS011;391;51.052;6.954;2023-03-11T00:12:21;3.85;;;1.80;;
817;SDS011;391;51.052;6.954;2023-03-11T00:14:24;7.00;;;1.80;;
817;SDS011;391;51.052;6.954;2023-03-11T00:16:27;5.03;;;1.85;;
817;SDS011;391;51.052;6.954;2023-03-11T00:18:31;5.65;;;1.55;;
817;SDS011;391;51.052;6.954;2023-03-11T00:20:35;8.65;;;2.35;;
817;SDS011;391;51.052;6.954;2023-03-11T00:22:41;6.50;;;1.60;;
817;SDS011;391;51.052;6.954;2023-03-11T00:24:44;2.85;;;1.60;;
817;SDS011;391;51.052;6.954;2023-03-11T00:26:48;1.80;;;1.30;;
817;SDS011;391;51.052;6.954;2023-03-11T00:28:51;7.38;;;1.88;;
817;SDS011;391;51.052;6.954;2023-03-11T00:30:56;4.70;;;1.38;;
817;SDS011;391;51.052;6.954;2023-03-11T00:33:02;3.00;;;2.13;;
817;SDS011;391;51.052;6.954;2023-03-11T00:35:07;3.30;;;1.50;;
817;SDS011;391;51.052;6.954;2023-03-11T00:37:15;2.08;;;1.50;;
817;SDS011;391;51.052;6.954;2023-03-11T00:39:19;5.10;;;1.70;;
817;SDS011;391;51.052;6.954;2023-03-11T00:41:24;7.25;;;4.53;;
817;SDS011;391;51.052;6.954;2023-03-11T00:43:27;2.53;;;1.40;;
817;SDS011;391;51.052;6.954;2023-03-11T00:45:31;3.50;;;1.70;;
817;SDS011;391;51.052;6.954;2023-03-11T00:47:35;1.95;;;1.40;;
817;SDS011;391;51.052;6.954;2023-03-11T00:49:38;3.05;;;2.10;;
817;SDS011;391;51.052;6.954;2023-03-11T00:51:42;4.03;;;1.13;;
817;SDS011;391;51.052;6.954;2023-03-11T00:53:45;3.38;;;1.48;;
817;SDS011;391;51.052;6.954;2023-03-11T00:55:50;1.83;;;1.60;;
817;SDS011;391;51.052;6.954;2023-03-11T00:57:54;2.20;;;1.20;;
817;SDS011;391;51.052;6.954;2023-03-11T01:00:01;6.30;;;2.53;;
817;SDS011;391;51.052;6.954;2023-03-11T01:02:05;6.10;;;1.77;;
817;SDS011;391;51.052;6.954;2023-03-11T01:04:08;3.50;;;1.70;;
817;SDS011;391;51.052;6.954;2023-03-11T01:06:12;5.65;;;2.42;;
817;SDS011;391;51.052;6.954;2023-03-11T01:08:16;3.63;;;1.42;;
817;SDS011;391;51.052;6.954;2023-03-11T01:10:20;2.10;;;1.90;;
817;SDS011;391;51.052;6.954;2023-03-11T01:12:24;4.30;;;1.30;;
817;SDS011;391;51.052;6.954;2023-03-11T01:14:28;3.80;;;1.80;;
817;SDS011;391;51.052;6.954;2023-03-11T01:16:31;4.40;;;2.15;;
817;SDS011;391;51.052;6.954;2023-03-11T01:18:35;7.55;;;1.95;;
817;SDS011;391;51.052;6.954;2023-03-11T01:20:38;3.42;;;1.50;;
817;SDS011;391;51.052;6.954;2023-03-11T01:22:42;6.38;;;1.80;;
817;SDS011;391;51.052;6.954;2023-03-11T01:24:45;5.15;;;2.05;;
817;SDS011;391;51.052;6.954;2023-03-11T01:26:49;3.30;;;1.20;;
817;SDS011;391;51.052;6.954;2023-03-11T01:28:53;2.55;;;1.50;;
817;SDS011;391;51.052;6.954;2023-03-11T01:30:57;5.07;;;2.20;;
817;SDS011;391;51.052;6.954;2023-03-11T01:33:01;1.52;;;1.40;;
817;SDS011;391;51.052;6.954;2023-03-11T01:35:05;6.55;;;1.55;;
817;SDS011;391;51.052;6.954;2023-03-11T01:37:09;4.07;;;1.80;;
817;SDS011;391;51.052;6.954;2023-03-11T01:39:12;3.60;;;1.75;;
817;SDS011;391;51.052;6.954;2023-03-11T01:41:15;3.45;;;1.67;;
817;SDS011;391;51.052;6.954;2023-03-11T01:43:39;2.80;;;1.60;;
817;SDS011;391;51.052;6.954;2023-03-11T01:48:15;2.38;;;1.80;;
817;SDS011;391;51.052;6.954;2023-03-11T01:50:18;3.70;;;1.70;;
817;SDS011;391;51.052;6.954;2023-03-11T01:52:22;3.83;;;1.70;;
817;SDS011;391;51.052;6.954;2023-03-11T01:54:27;2.28;;;2.03;;
817;SDS011;391;51.052;6.954;2023-03-11T01:56:34;4.60;;;1.42;;
817;SDS011;391;51.052;6.954;2023-03-11T01:58:38;2.20;;;1.40;;
817;SDS011;391;51.052;6.954;2023-03-11T02:00:46;3.13;;;1.77;;
817;SDS011;391;51.052;6.954;2023-03-11T02:02:52;3.05;;;1.33;;
817;SDS011;391;51.052;6.954;2023-03-11T02:04:58;3.20;;;2.70;;
817;SDS011;391;51.052;6.954;2023-03-11T02:07:03;3.78;;;2.22;;
817;SDS011;391;51.052;6.954;2023-03-11T02:09:09;5.32;;;2.17;;
817;SDS011;391;51.052;6.954;2023-03-11T02:11:14;7.07;;;1.38;;
817;SDS011;391;51.052;6.954;2023-03-11T02:13:19;4.05;;;1.70;;
817;SDS011;391;51.052;6.954;2023-03-11T02:15:23;7.10;;;1.60;;
817;SDS011;391;51.052;6.954;2023-03-11T02:17:27;3.10;;;1.98;;
817;SDS011;391;51.052;6.954;2023-03-11T02:19:34;4.80;;;2.22;;
817;SDS011;391;51.052;6.954;2023-03-11T02:21:48;2.95;;;1.92;;
817;SDS011;391;51.052;6.954;2023-03-11T02:23:57;6.97;;;2.15;;
817;SDS011;391;51.052;6.954;2023-03-11T02:26:08;3.28;;;1.45;;
817;SDS011;391;51.052;6.954;2023-03-11T02:28:20;2.85;;;1.45;;
817;SDS011;391;51.052;6.954;2023-03-11T02:30:25;2.47;;;2.25;;
817;SDS011;391;51.052;6.954;2023-03-11T02:32:29;2.28;;;1.17;;
817;SDS011;391;51.052;6.954;2023-03-11T02:34:34;4.75;;;1.70;;
817;SDS011;391;51.052;6.954;2023-03-11T02:36:41;3.92;;;1.70;;
817;SDS011;391;51.052;6.954;2023-03-11T02:38:47;2.03;;;1.52;;
817;SDS011;391;51.052;6.954;2023-03-11T02:40:52;4.60;;;1.88;;
817;SDS011;391;51.052;6.954;2023-03-11T02:42:59;4.00;;;1.98;;
817;SDS011;391;51.052;6.954;2023-03-11T02:45:11;2.75;;;1.77;;
817;SDS011;391;51.052;6.954;2023-03-11T02:47:17;2.97;;;1.35;;
817;SDS011;391;51.052;6.954;2023-03-11T02:49:21;2.30;;;1.25;;
817;SDS011;391;51.052;6.954;2023-03-11T02:51:25;2.50;;;1.55;;
817;SDS011;391;51.052;6.954;2023-03-11T02:53:29;2.38;;;1.70;;
817;SDS011;391;51.052;6.954;2023-03-11T02:55:36;2.30;;;1.20;;
817;SDS011;391;51.052;6.954;2023-03-11T02:57:41;4.35;;;2.03;;
817;SDS011;391;51.052;6.954;2023-03-11T02:59:45;3.70;;;1.23;;
817;SDS011;391;51.052;6.954;2023-03-11T03:01:50;5.65;;;1.80;;
817;SDS011;391;51.052;6.954;2023-03-11T03:03:55;3.15;;;1.35;;
817;SDS011;391;51.052;6.954;2023-03-11T03:05:59;4.40;;;2.05;;
817;SDS011;391;51.052;6.954;2023-03-11T03:08:03;4.30;;;1.80;;
817;SDS011;391;51.052;6.954;2023-03-11T03:10:06;3.05;;;1.40;;
817;SDS011;391;51.052;6.954;2023-03-11T03:12:11;6.25;;;1.30;;
817;SDS011;391;51.052;6.954;2023-03-11T03:14:14;5.40;;;1.73;;
817;SDS011;391;51.052;6.954;2023-03-11T03:16:18;5.25;;;1.60;;
817;SDS011;391;51.052;6.954;2023-03-11T03:18:23;2.42;;;1.50;;
817;SDS011;391;51.052;6.954;2023-03-11T03:20:27;8.38;;;1.60;;
817;SDS011;391;51.052;6.954;2023-03-11T03:22:34;1.90;;;1.20;;
817;SDS011;391;51.052;6.954;2023-03-11T03:24:37;4.80;;;1.30;;
817;SDS011;391;51.052;6.954;2023-03-11T03:26:41;6.68;;;1.48;;
817;SDS011;391;51.052;6.954;2023-03-11T03:28:45;2.45;;;1.67;;
817;SDS011;391;51.052;6.954;2023-03-11T03:30:48;4.38;;;1.20;;
817;SDS011;391;51.052;6.954;2023-03-11T03:32:52;3.95;;;1.20;;
817;SDS011;391;51.052;6.954;2023-03-11T03:34:57;2.33;;;1.38;;
817;SDS011;391;51.052;6.954;2023-03-11T03:37:14;2.85;;;1.65;;
817;SDS011;391;51.052;6.954;2023-03-11T03:39:17;3.05;;;1.40;;
817;SDS011;391;51.052;6.954;2023-03-11T03:41:23;3.03;;;1.05;;
817;SDS011;391;51.052;6.954;2023-03-11T03:43:27;4.38;;;1.65;;
817;SDS011;391;51.052;6.954;2023-03-11T03:45:32;5.43;;;1.17;;
817;SDS011;391;51.052;6.954;2023-03-11T03:47:36;3.05;;;1.60;;
817;SDS011;391;51.052;6.954;2023-03-11T03:49:40;2.08;;;1.15;;
817;SDS011;391;51.052;6.954;2023-03-11T03:51:45;3.15;;;1.30;;
817;SDS011;391;51.052;6.954;2023-03-11T03:54:00;1.52;;;1.00;;
817;SDS011;391;51.052;6.954;2023-03-11T03:56:05;1.85;;;1.40;;
817;SDS011;391;51.052;6.954;2023-03-11T03:58:10;2.60;;;1.63;;
817;SDS011;391;51.052;6.954;2023-03-11T04:00:14;4.30;;;1.40;;
817;SDS011;391;51.052;6.954;2023-03-11T04:02:22;2.55;;;1.20;;
817;SDS011;391;51.052;6.954;2023-03-11T04:04:26;6.70;;;1.90;;
817;SDS011;391;51.052;6.954;2023-03-11T04:06:31;6.32;;;2.20;;
817;SDS011;391;51.052;6.954;2023-03-11T04:08:39;5.63;;;1.52;;
817;SDS011;391;51.052;6.954;2023-03-11T04:10:45;4.68;;;1.00;;
817;SDS011;391;51.052;6.954;2023-03-11T04:12:59;2.17;;;1.23;;
817;SDS011;391;51.052;6.954;2023-03-11T04:15:03;1.23;;;1.00;;
817;SDS011;391;51.052;6.954;2023-03-11T04:17:09;3.30;;;1.10;;
817;SDS011;391;51.052;6.954;2023-03-11T04:19:18;1.38;;;1.23;;
817;SDS011;391;51.052;6.954;2023-03-11T04:21:22;3.03;;;1.38;;
817;SDS011;391;51.052;6.954;2023-03-11T04:23:27;2.10;;;0.88;;
817;SDS011;391;51.052;6.954;2023-03-11T04:25:32;3.15;;;1.10;;
817;SDS011;391;51.052;6.954;2023-03-11T04:27:36;4.85;;;1.20;;
817;SDS011;391;51.052;6.954;2023-03-11T04:29:43;3.50;;;1.00;;
817;SDS011;391;51.052;6.954;2023-03-11T04:31:47;4.03;;;1.40;;
817;SDS011;391;51.052;6.954;2023-03-11T04:33:51;3.95;;;1.35;;
817;SDS011;391;51.052;6.954;2023-03-11T04:35:55;3.95;;;1.55;;
817;SDS011;391;51.052;6.954;2023-03-11T04:37:59;2.63;;;1.10;;
817;SDS011;391;51.052;6.954;2023-03-11T04:40:03;1.40;;;1.30;;
817;SDS011;391;51.052;6.954;2023-03-11T04:42:09;3.20;;;1.23;;
817;SDS011;391;51.052;6.954;2023-03-11T04:44:16;3.50;;;1.10;;
817;SDS011;391;51.052;6.954;2023-03-11T04:46:20;1.23;;;1.10;;
817;SDS011;391;51.052;6.954;2023-03-11T04:48:24;5.35;;;2.17;;
817;SDS011;391;51.052;6.954;2023-03-11T04:50:28;2.78;;;1.15;;
817;SDS011;391;51.052;6.954;2023-03-11T04:52:32;3.95;;;1.10;;
817;SDS011;391;51.052;6.954;2023-03-11T04:54:35;2.10;;;1.65;;
817;SDS011;391;51.052;6.954;2023-03-11T04:56:39;1.67;;;1.15;;
817;SDS011;391;51.052;6.954;2023-03-11T04:58:44;1.55;;;1.15;;
817;SDS011;391;51.052;6.954;2023-03-11T05:00:48;6.78;;;1.45;;
817;SDS011;391;51.052;6.954;2023-03-11T05:02:51;1.58;;;1.00;;
817;SDS011;391;51.052;6.954;2023-03-11T05:04:56;1.75;;;1.25;;
817;SDS011;391;51.052;6.954;2023-03-11T05:06:59;1.85;;;1.35;;
817;SDS011;391;51.052;6.954;2023-03-11T05:09:04;5.85;;;1.77;;
817;SDS011;391;51.052;6.954;2023-03-11T05:11:11;4.03;;;1.83;;
817;SDS011;391;51.052;6.954;2023-03-11T05:13:17;2.72;;;1.35;;
817;SDS011;391;51.052;6.954;2023-03-11T05:15:23;2.08;;;1.20;;
817;SDS011;391;51.052;6.954;2023-03-11T05:17:26;3.45;;;2.50;;
817;SDS011;391;51.052;6.954;2023-03-11T05:19:30;7.03;;;1.30;;
817;SDS011;391;51.052;6.954;2023-03-11T05:21:42;2.25;;;1.33;;
817;SDS011;391;51.052;6.954;2023-03-11T05:23:45;3.15;;;1.10;;
817;SDS011;391;51.052;6.954;2023-03-11T05:25:49;4.07;;;1.55;;
817;SDS011;391;51.052;6.954;2023-03-11T05:27:52;2.95;;;1.35;;
817;SDS011;391;51.052;6.954;2023-03-11T05:29:56;1.70;;;0.88;;
817;SDS011;391;51.052;6.954;2023-03-11T05:32:02;2.15;;;1.23;;
817;SDS011;391;51.052;6.954;2023-03-11T05:34:06;2.55;;;1.15;;
817;SDS011;391;51.052;6.954;2023-03-11T05:36:10;3.28;;;1.30;;
817;SDS011;391;51.052;6.954;2023-03-11T05:38:16;2.65;;;1.25;;
817;SDS011;391;51.052;6.954;2023-03-11T05:40:20;2.30;;;1.35;;
817;SDS011;391;51.052;6.954;2023-03-11T05:42:25;1.52;;;1.20;;
817;SDS011;391;51.052;6.954;2023-03-11T05:44:30;4.45;;;1.27;;
817;SDS011;391;51.052;6.954;2023-03-11T05:46:34;6.00;;;1.60;;
817;SDS011;391;51.052;6.954;2023-03-11T05:48:41;4.70;;;1.38;;
817;SDS011;391;51.052;6.954;2023-03-11T05:50:46;2.63;;;1.00;;
817;SDS011;391;51.052;6.954;2023-03-11T05:52:50;4.65;;;1.00;;
817;SDS011;391;51.052;6.954;2023-03-11T05:54:55;1.60;;;1.20;;
817;SDS011;391;51.052;6.954;2023-03-11T05:57:01;3.45;;;1.40;;
817;SDS011;391;51.052;6.954;2023-03-11T05:59:07;2.17;;;1.00;;
817;SDS011;391;51.052;6.954;2023-03-11T06:01:13;1.80;;;0.90;;
817;SDS011;391;51.052;6.954;2023-03-11T06:03:17;4.88;;;1.45;;
817;SDS011;391;51.052;6.954;2023-03-11T06:05:23;2.88;;;1.02;;
817;SDS011;391;51.052;6.954;2023-03-11T06:07:28;1.88;;;1.17;;
817;SDS011;391;51.052;6.954;2023-03-11T06:09:32;2.38;;;1.10;;
817;SDS011;391;51.052;6.954;2023-03-11T06:11:39;2.00;;;1.17;;
817;SDS011;391;51.052;6.954;2023-03-11T06:13:43;2.83;;;1.23;;
817;SDS011;391;51.052;6.954;2023-03-11T06:15:47;2.17;;;1.17;;
817;SDS011;391;51.052;6.954;2023-03-11T06:17:51;1.80;;;1.30;;
817;SDS011;391;51.052;6.954;2023-03-11T06:19:54;2.50;;;1.10;;
817;SDS011;391;51.052;6.954;2023-03-11T06:21:59;7.97;;;5.30;;
817;SDS011;391;51.052;6.954;2023-03-11T06:24:03;7.00;;;4.45;;
817;SDS011;391;51.052;6.954;2023-03-11T06:26:09;7.38;;;3.60;;
817;SDS011;391;51.052;6.954;2023-03-11T06:28:16;6.97;;;3.20;;
817;SDS011;391;51.052;6.954;2023-03-11T06:30:20;5.65;;;2.10;;
817;SDS011;391;51.052;6.954;2023-03-11T06:32:32;2.45;;;1.85;;
817;SDS011;391;51.052;6.954;2023-03-11T06:34:36;2.63;;;1.50;;
817;SDS011;391;51.052;6.954;2023-03-11T06:36:40;3.70;;;1.80;;
817;SDS011;391;51.052;6.954;2023-03-11T06:38:45;2.80;;;1.50;;
817;SDS011;391;51.052;6.954;2023-03-11T06:40:51;3.15;;;1.30;;
817;SDS011;391;51.052;6.954;2023-03-11T06:42:54;3.88;;;1.65;;
817;SDS011;391;51.052;6.954;2023-03-11T06:45:00;2.30;;;1.33;;
817;SDS011;391;51.052;6.954;2023-03-11T06:47:03;6.22;;;1.95;;
817;SDS011;391;51.052;6.954;2023-03-11T06:49:07;3.75;;;2.08;;
817;SDS011;391;51.052;6.954;2023-03-11T06:51:13;4.50;;;1.42;;
817;SDS011;391;51.052;6.954;2023-03-11T06:53:17;5.88;;;2.30;;
817;SDS011;391;51.052;6.954;2023-03-11T06:55:22;3.13;;;2.15;;
817;SDS011;391;51.052;6.954;2023-03-11T06:57:25;3.05;;;1.58;;
817;SDS011;391;51.052;6.954;2023-03-11T06:59:32;7.10;;;1.48;;
817;SDS011;391;51.052;6.954;2023-03-11T07:01:36;1.42;;;1.17;;
817;SDS011;391;51.052;6.954;2023-03-11T07:03:41;2.40;;;1.33;;
817;SDS011;391;51.052;6.954;2023-03-11T07:05:45;7.22;;;1.27;;
817;SDS011;391;51.052;6.954;2023-03-11T07:07:53;1.60;;;1.20;;
817;SDS011;391;51.052;6.954;2023-03-11T07:09:59;3.20;;;1.75;;
817;SDS011;391;51.052;6.954;2023-03-11T07:12:04;2.90;;;1.50;;
817;SDS011;391;51.052;6.954;2023-03-11T07:14:10;2.28;;;1.52;;
817;SDS011;391;51.052;6.954;2023-03-11T07:16:18;6.50;;;3.42;;
817;SDS011;391;51.052;6.954;2023-03-11T07:18:25;8.60;;;3.30;;
817;SDS011;391;51.052;6.954;2023-03-11T07:20:30;5.03;;;2.70;;
817;SDS011;391;51.052;6.954;2023-03-11T07:22:33;2.03;;;1.70;;
817;SDS011;391;51.052;6.954;2023-03-11T07:24:37;7.25;;;1.70;;
817;SDS011;391;51.052;6.954;2023-03-11T07:26:40;6.47;;;2.63;;
817;SDS011;391;51.052;6.954;2023-03-11T07:28:46;2.65;;;1.65;;
817;SDS011;391;51.052;6.954;2023-03-11T07:30:51;11.27;;;3.75;;
817;SDS011;391;51.052;6.954;2023-03-11T07:32:55;4.93;;;3.15;;
817;SDS011;391;51.052;6.954;2023-03-11T07:34:59;5.43;;;2.88;;
817;SDS011;391;51.052;6.954;2023-03-11T07:37:02;3.95;;;2.67;;
817;SDS011;391;51.052;6.954;2023-03-11T07:39:05;2.28;;;2.08;;
817;SDS011;391;51.052;6.954;2023-03-11T07:41:09;2.33;;;1.90;;
817;SDS011;391;51.052;6.954;2023-03-11T07:43:14;3.42;;;2.08;;
817;SDS011;391;51.052;6.954;2023-03-11T07:45:19;3.80;;;1.63;;
817;SDS011;391;51.052;6.954;2023-03-11T07:47:24;1.83;;;1.52;;
817;SDS011;391;51.052;6.954;2023-03-11T07:49:28;5.80;;;2.10;;
817;SDS011;391;51.052;6.954;2023-03-11T07:51:32;5.35;;;3.95;;
817;SDS011;391;51.052;6.954;2023-03-11T07:53:37;4.78;;;1.83;;
817;SDS011;391;51.052;6.954;2023-03-11T07:55:41;5.80;;;2.40;;
817;SDS011;391;51.052;6.954;2023-03-11T07:57:45;2.28;;;2.08;;
817;SDS011;391;51.052;6.954;2023-03-11T07:59:49;2.65;;;1.70;;
817;SDS011;391;51.052;6.954;2023-03-11T08:01:54;4.93;;;1.90;;
817;SDS011;391;51.052;6.954;2023-03-11T08:03:57;3.50;;;1.95;;
817;SDS011;391;51.052;6.954;2023-03-11T08:06:01;3.72;;;1.92;;
817;SDS011;391;51.052;6.954;2023-03-11T08:08:05;2.03;;;1.52;;
817;SDS011;391;51.052;6.954;2023-03-11T08:10:09;2.22;;;1.92;;
817;SDS011;391;51.052;6.954;2023-03-11T08:12:14;5.40;;;3.53;;
817;SDS011;391;51.052;6.954;2023-03-11T08:14:17;6.47;;;4.03;;
817;SDS011;391;51.052;6.954;2023-03-11T08:16:21;4.78;;;4.13;;
817;SDS011;391;51.052;6.954;2023-03-11T08:18:26;2.45;;;2.05;;
817;SDS011;391;51.052;6.954;2023-03-11T08:20:29;4.70;;;2.92;;
817;SDS011;391;51.052;6.954;2023-03-11T08:22:32;3.63;;;1.95;;
817;SDS011;391;51.052;6.954;2023-03-11T08:24:37;3.97;;;2.00;;
817;SDS011;391;51.052;6.954;2023-03-11T08:26:41;3.47;;;2.67;;
817;SDS011;391;51.052;6.954;2023-03-11T08:28:44;3.22;;;2.58;;
817;SDS011;391;51.052;6.954;2023-03-11T08:30:48;5.25;;;2.03;;
817;SDS011;391;51.052;6.954;2023-03-11T08:32:52;4.75;;;2.70;;
817;SDS011;391;51.052;6.954;2023-03-11T08:34:57;2.72;;;1.50;;
817;SDS011;391;51.052;6.954;2023-03-11T08:37:01;4.40;;;2.00;;
817;SDS011;391;51.052;6.954;2023-03-11T08:39:04;3.78;;;2.22;;
817;SDS011;391;51.052;6.954;2023-03-11T08:41:08;8.45;;;2.42;;
817;SDS011;391;51.052;6.954;2023-03-11T08:43:12;3.00;;;2.07;;
817;SDS011;391;51.052;6.954;2023-03-11T08:45:16;2.97;;;1.90;;
817;SDS011;391;51.052;6.954;2023-03-11T08:47:20;3.92;;;2.50;;
817;SDS011;391;51.052;6.954;2023-03-11T08:49:24;2.22;;;1.85;;
817;SDS011;391;51.052;6.954;2023-03-11T08:51:29;4.60;;;1.87;;
817;SDS011;391;51.052;6.954;2023-03-11T08:53:33;3.67;;;1.90;;
817;SDS011;391;51.052;6.954;2023-03-11T08:55:38;4.13;;;1.90;;
817;SDS011;391;51.052;6.954;2023-03-11T08:57:41;2.60;;;2.05;;
817;SDS011;391;51.052;6.954;2023-03-11T08:59:45;2.88;;;1.83;;
817;SDS011;391;51.052;6.954;2023-03-11T09:01:48;2.90;;;1.80;;
817;SDS011;391;51.052;6.954;2023-03-11T09:03:52;7.03;;;2.10;;
817;SDS011;391;51.052;6.954;2023-03-11T09:05:55;4.63;;;2.28;;
817;SDS011;391;51.052;6.954;2023-03-11T09:08:01;2.33;;;1.57;;
817;SDS011;391;51.052;6.954;2023-03-11T09:10:07;5.97;;;3.22;;
817;SDS011;391;51.052;6.954;2023-03-11T09:12:11;3.30;;;2.80;;
817;SDS011;391;51.052;6.954;2023-03-11T09:14:15;3.37;;;1.87;;
817;SDS011;391;51.052;6.954;2023-03-11T09:16:19;3.88;;;1.77;;
817;SDS011;391;51.052;6.954;2023-03-11T09:18:23;4.53;;;2.00;;
817;SDS011;391;51.052;6.954;2023-03-11T09:20:28;3.97;;;2.30;;
817;SDS011;391;51.052;6.954;2023-03-11T09:22:31;2.42;;;1.52;;
817;SDS011;391;51.052;6.954;2023-03-11T09:24:36;6.40;;;1.70;;
817;SDS011;391;51.052;6.954;2023-03-11T09:26:39;4.73;;;2.00;;
817;SDS011;391;51.052;6.954;2023-03-11T09:28:43;5.77;;;2.83;;
817;SDS011;391;51.052;6.954;2023-03-11T09:30:50;2.67;;;1.60;;
817;SDS011;391;51.052;6.954;2023-03-11T09:32:53;4.30;;;1.50;;
817;SDS011;391;51.052;6.954;2023-03-11T09:34:56;1.93;;;1.40;;
817;SDS011;391;51.052;6.954;2023-03-11T09:37:01;4.37;;;1.93;;
817;SDS011;391;51.052;6.954;2023-03-11T09:39:04;1.77;;;1.10;;
817;SDS011;391;51.052;6.954;2023-03-11T09:41:12;4.53;;;1.30;;
817;SDS011;391;51.052;6.954;2023-03-11T09:43:34;4.70;;;1.50;;
817;SDS011;391;51.052;6.954;2023-03-11T09:45:50;4.20;;;1.90;;
817;SDS011;391;51.052;6.954;2023-03-11T09:48:02;2.50;;;1.30;;
817;SDS011;391;51.052;6.954;2023-03-11T09:50:19;1.65;;;1.25;;
817;SDS011;391;51.052;6.954;2023-03-11T09:52:29;6.20;;;1.77;;
817;SDS011;391;51.052;6.954;2023-03-11T09:54:40;2.38;;;1.30;;
817;SDS011;391;51.052;6.954;2023-03-11T09:56:48;3.90;;;1.73;;
817;SDS011;391;51.052;6.954;2023-03-11T09:58:53;4.27;;;1.97;;
817;SDS011;391;51.052;6.954;2023-03-11T10:01:02;5.23;;;3.93;;
817;SDS011;391;51.052;6.954;2023-03-11T10:03:24;5.37;;;3.37;;
817;SDS011;391;51.052;6.954;2023-03-11T10:05:31;2.67;;;1.93;;
817;SDS011;391;51.052;6.954;2023-03-11T10:07:35;4.80;;;2.17;;
817;SDS011;391;51.052;6.954;2023-03-11T10:09:42;2.90;;;1.33;;
817;SDS011;391;51.052;6.954;2023-03-11T10:11:53;2.50;;;1.43;;
817;SDS011;391;51.052;6.954;2023-03-11T10:14:07;2.33;;;1.30;;
817;SDS011;391;51.052;6.954;2023-03-11T10:16:18;3.40;;;2.20;;
817;SDS011;391;51.052;6.954;2023-03-11T10:18:30;2.83;;;1.70;;
817;SDS011;391;51.052;6.954;2023-03-11T10:20:47;4.13;;;1.40;;
817;SDS011;391;51.052;6.954;2023-03-11T10:23:01;3.33;;;1.40;;
817;SDS011;391;51.052;6.954;2023-03-11T10:25:14;2.73;;;1.17;;
817;SDS011;391;51.052;6.954;2023-03-11T10:27:21;2.10;;;1.30;;
817;SDS011;391;51.052;6.954;2023-03-11T10:29:29;2.43;;;1.20;;
817;SDS011;391;51.052;6.954;2023-03-11T10:31:41;1.90;;;1.30;;
817;SDS011;391;51.052;6.954;2023-03-11T10:33:49;4.33;;;1.33;;
817;SDS011;391;51.052;6.954;2023-03-11T10:35:57;2.30;;;1.20;;
817;SDS011;391;51.052;6.954;2023-03-11T10:38:09;3.13;;;1.10;;
817;SDS011;391;51.052;6.954;2023-03-11T10:40:21;1.83;;;1.30;;
817;SDS011;391;51.052;6.954;2023-03-11T10:42:29;2.00;;;1.00;;
817;SDS011;391;51.052;6.954;2023-03-11T10:44:36;1.87;;;1.03;;
817;SDS011;391;51.052;6.954;2023-03-11T10:46:41;1.90;;;1.57;;
817;SDS011;391;51.052;6.954;2023-03-11T10:48:46;2.60;;;1.07;;
817;SDS011;391;51.052;6.954;2023-03-11T10:50:51;1.30;;;0.80;;
817;SDS011;391;51.052;6.954;2023-03-11T10:53:08;2.43;;;1.17;;
817;SDS011;391;51.052;6.954;2023-03-11T10:55:15;1.90;;;1.00;;
817;SDS011;391;51.052;6.954;2023-03-11T10:57:23;1.43;;;0.97;;
817;SDS011;391;51.052;6.954;2023-03-11T10:59:31;2.33;;;1.10;;
817;SDS011;391;51.052;6.954;2023-03-11T11:01:35;2.63;;;1.43;;
817;SDS011;391;51.052;6.954;2023-03-11T11:03:40;1.97;;;0.93;;
817;SDS011;391;51.052;6.954;2023-03-11T11:05:44;2.47;;;1.20;;
817;SDS011;391;51.052;6.954;2023-03-11T11:08:04;1.80;;;1.53;;
817;SDS011;391;51.052;6.954;2023-03-11T11:10:14;2.70;;;1.73;;
817;SDS011;391;51.052;6.954;2023-03-11T11:12:19;1.90;;;1.43;;
817;SDS011;391;51.052;6.954;2023-03-11T11:14:23;3.30;;;1.47;;
817;SDS011;391;51.052;6.954;2023-03-11T11:16:27;2.63;;;1.10;;
817;SDS011;391;51.052;6.954;2023-03-11T11:18:32;1.60;;;1.10;;
817;SDS011;391;51.052;6.954;2023-03-11T11:20:38;1.20;;;1.10;;
817;SDS011;391;51.052;6.954;2023-03-11T11:22:56;3.20;;;1.50;;
817;SDS011;391;51.052;6.954;2023-03-11T11:25:01;2.23;;;1.10;;
817;SDS011;391;51.052;6.954;2023-03-11T11:27:05;3.23;;;1.50;;
817;SDS011;391;51.052;6.954;2023-03-11T11:29:16;1.27;;;1.17;;
817;SDS011;391;51.052;6.954;2023-03-11T11:31:21;2.03;;;1.50;;
817;SDS011;391;51.052;6.954;2023-03-11T11:33:28;1.10;;;1.00;;
817;SDS011;391;51.052;6.954;2023-03-11T11:35:33;2.80;;;1.30;;
817;SDS011;391;51.052;6.954;2023-03-11T11:37:38;2.20;;;1.03;;
817;SDS011;391;51.052;6.954;2023-03-11T11:39:44;3.17;;;1.23;;
817;SDS011;391;51.052;6.954;2023-03-11T11:41:53;4.00;;;1.23;;
817;SDS011;391;51.052;6.954;2023-03-11T11:43:59;5.03;;;1.20;;
817;SDS011;391;51.052;6.954;2023-03-11T11:46:05;2.80;;;1.30;;
817;SDS011;391;51.052;6.954;2023-03-11T11:48:16;2.73;;;1.20;;
817;SDS011;391;51.052;6.954;2023-03-11T11:50:27;2.20;;;0.90;;
817;SDS011;391;51.052;6.954;2023-03-11T11:52:36;1.70;;;0.90;;
817;SDS011;391;51.052;6.954;2023-03-11T11:54:47;2.27;;;1.23;;
817;SDS011;391;51.052;6.954;2023-03-11T11:56:54;4.47;;;1.27;;
817;SDS011;391;51.052;6.954;2023-03-11T11:58:59;4.17;;;1.40;;
817;SDS011;391;51.052;6.954;2023-03-11T12:01:06;3.50;;;1.50;;
817;SDS011;391;51.052;6.954;2023-03-11T12:03:22;1.63;;;1.30;;
817;SDS011;391;51.052;6.954;2023-03-11T12:05:42;6.00;;;1.97;;
817;SDS011;391;51.052;6.954;2023-03-11T12:07:55;2.77;;;1.60;;
817;SDS011;391;51.052;6.954;2023-03-11T12:10:14;3.83;;;1.23;;
817;SDS011;391;51.052;6.954;2023-03-11T12:12:26;1.70;;;1.30;;
817;SDS011;391;51.052;6.954;2023-03-11T12:14:36;1.50;;;1.40;;
817;SDS011;391;51.052;6.954;2023-03-11T12:16:45;2.40;;;1.30;;
817;SDS011;391;51.052;6.954;2023-03-11T12:18:56;2.20;;;1.03;;
817;SDS011;391;51.052;6.954;2023-03-11T12:21:05;2.37;;;1.30;;
817;SDS011;391;51.052;6.954;2023-03-11T12:23:28;2.30;;;1.50;;
817;SDS011;391;51.052;6.954;2023-03-11T12:25:49;4.90;;;1.10;;
817;SDS011;391;51.052;6.954;2023-03-11T12:28:10;2.13;;;1.53;;
817;SDS011;391;51.052;6.954;2023-03-11T12:30:21;2.40;;;1.47;;
817;SDS011;391;51.052;6.954;2023-03-11T12:32:29;2.60;;;1.40;;
817;SDS011;391;51.052;6.954;2023-03-11T12:34:36;4.10;;;1.00;;
817;SDS011;391;51.052;6.954;2023-03-11T12:36:41;3.20;;;1.67;;
817;SDS011;391;51.052;6.954;2023-03-11T12:38:48;2.83;;;1.83;;
817;SDS011;391;51.052;6.954;2023-03-11T12:40:59;7.97;;;6.40;;
817;SDS011;391;51.052;6.954;2023-03-11T12:43:12;18.03;;;11.37;;
817;SDS011;391;51.052;6.954;2023-03-11T12:50:37;13.70;;;12.30;;
817;SDS011;391;51.052;6.954;2023-03-11T12:55:28;5.13;;;2.70;;
817;SDS011;391;51.052;6.954;2023-03-11T12:57:34;1.53;;;1.37;;
817;SDS011;391;51.052;6.954;2023-03-11T12:59:47;4.60;;;3.40;;
817;SDS011;391;51.052;6.954;2023-03-11T13:02:19;7.00;;;4.60;;
817;SDS011;391;51.052;6.954;2023-03-11T13:04:38;2.40;;;2.20;;
817;SDS011;391;51.052;6.954;2023-03-11T13:06:57;4.00;;;2.40;;
817;SDS011;391;51.052;6.954;2023-03-11T13:09:14;3.57;;;1.60;;
817;SDS011;391;51.052;6.954;2023-03-11T13:11:26;4.40;;;1.60;;
817;SDS011;391;51.052;6.954;2023-03-11T13:13:38;7.57;;;2.07;;
817;SDS011;391;51.052;6.954;2023-03-11T13:15:42;3.07;;;1.93;;
817;SDS011;391;51.052;6.954;2023-03-11T13:17:54;5.10;;;2.30;;
817;SDS011;391;51.052;6.954;2023-03-11T13:20:00;2.17;;;1.40;;
817;SDS011;391;51.052;6.954;2023-03-11T13:22:04;2.90;;;1.20;;
817;SDS011;391;51.052;6.954;2023-03-11T13:26:54;4.03;;;1.23;;
817;SDS011;391;51.052;6.954;2023-03-11T13:29:09;2.03;;;1.10;;
817;SDS011;391;51.052;6.954;2023-03-11T13:31:34;2.13;;;1.20;;
817;SDS011;391;51.052;6.954;2023-03-11T13:33:54;1.67;;;1.13;;
817;SDS011;391;51.052;6.954;2023-03-11T13:36:02;5.20;;;1.77;;
817;SDS011;391;51.052;6.954;2023-03-11T13:38:16;2.63;;;1.53;;
817;SDS011;391;51.052;6.954;2023-03-11T13:40:38;3.33;;;1.80;;
817;SDS011;391;51.052;6.954;2023-03-11T13:42:43;4.10;;;1.63;;
817;SDS011;391;51.052;6.954;2023-03-11T13:44:50;3.03;;;1.20;;